sensor_id;sensor_type;location;lat;lon;timestamp;P1;durP1;ratioP1;P2;durP2;ratioP2
5951;SDS011;3001;42.622;23.194;2022-08-03T00:01:39;1.10;;;1.10;;
5951;SDS011;3001;42.622;23.194;2022-08-03T00:04:07;1.30;;;1.30;;
5951;SDS011;3001;42.622;23.194;2022-08-03T00:06:35;2.07;;;1.07;;
5951;SDS011;3001;42.622;23.194;2022-08-03T00:09:02;1.23;;;1.23;;
5951;SDS011;3001;42.622;23.194;2022-08-03T00:11:31;1.07;;;1.07;;
5951;SDS011;3001;42.622;23.194;2022-08-03T00:13:58;2.83;;;1.30;;
5951;SDS011;3001;42.622;23.194;2022-08-03T00:16:25;0.93;;;0.93;;
5951;SDS011;3001;42.622;23.194;2022-08-03T00:18:52;1.00;;;1.00;;
5951;SDS011;3001;42.622;23.194;2022-08-03T00:21:19;1.33;;;1.30;;
5951;SDS011;3001;42.622;23.194;2022-08-03T00:23:45;1.20;;;1.20;;
5951;SDS011;3001;42.622;23.194;2022-08-03T00:26:12;1.00;;;1.00;;
5951;SDS011;3001;42.622;23.194;2022-08-03T00:28:40;1.30;;;1.30;;
5951;SDS011;3001;42.622;23.194;2022-08-03T00:31:07;1.10;;;1.10;;
5951;SDS011;3001;42.622;23.194;2022-08-03T00:33:34;1.10;;;1.10;;
5951;SDS011;3001;42.622;23.194;2022-08-03T00:36:01;1.30;;;1.07;;
5951;SDS011;3001;42.622;23.194;2022-08-03T00:38:27;1.20;;;1.20;;
5951;SDS011;3001;42.622;23.194;2022-08-03T00:40:54;1.40;;;1.30;;
5951;SDS011;3001;42.622;23.194;2022-08-03T00:43:23;1.40;;;1.40;;
5951;SDS011;3001;42.622;23.194;2022-08-03T00:45:51;1.20;;;1.20;;
5951;SDS011;3001;42.622;23.194;2022-08-03T00:48:19;1.20;;;1.20;;
5951;SDS011;3001;42.622;23.194;2022-08-03T00:50:46;1.30;;;1.30;;
5951;SDS011;3001;42.622;23.194;2022-08-03T00:53:13;1.13;;;1.13;;
5951;SDS011;3001;42.622;23.194;2022-08-03T00:55:40;1.20;;;1.20;;
5951;SDS011;3001;42.622;23.194;2022-08-03T00:58:07;1.37;;;1.37;;
5951;SDS011;3001;42.622;23.194;2022-08-03T01:00:36;1.20;;;1.20;;
5951;SDS011;3001;42.622;23.194;2022-08-03T01:03:05;1.50;;;1.47;;
5951;SDS011;3001;42.622;23.194;2022-08-03T01:05:35;2.60;;;1.50;;
5951;SDS011;3001;42.622;23.194;2022-08-03T01:08:12;1.30;;;1.30;;
5951;SDS011;3001;42.622;23.194;2022-08-03T01:10:50;2.60;;;1.53;;
5951;SDS011;3001;42.622;23.194;2022-08-03T01:13:24;1.63;;;1.53;;
5951;SDS011;3001;42.622;23.194;2022-08-03T01:15:55;1.63;;;1.53;;
5951;SDS011;3001;42.622;23.194;2022-08-03T01:18:30;4.00;;;1.27;;
5951;SDS011;3001;42.622;23.194;2022-08-03T01:21:02;1.23;;;1.23;;
5951;SDS011;3001;42.622;23.194;2022-08-03T01:23:48;2.57;;;1.30;;
5951;SDS011;3001;42.622;23.194;2022-08-03T01:26:33;1.93;;;1.50;;
5951;SDS011;3001;42.622;23.194;2022-08-03T01:29:15;1.47;;;1.47;;
5951;SDS011;3001;42.622;23.194;2022-08-03T01:32:01;1.77;;;1.67;;
5951;SDS011;3001;42.622;23.194;2022-08-03T01:34:35;1.47;;;1.47;;
5951;SDS011;3001;42.622;23.194;2022-08-03T01:37:08;1.50;;;1.50;;
5951;SDS011;3001;42.622;23.194;2022-08-03T01:39:38;1.43;;;1.43;;
5951;SDS011;3001;42.622;23.194;2022-08-03T01:42:07;1.63;;;1.53;;
5951;SDS011;3001;42.622;23.194;2022-08-03T01:44:39;1.73;;;1.63;;
5951;SDS011;3001;42.622;23.194;2022-08-03T01:47:09;1.57;;;1.57;;
5951;SDS011;3001;42.622;23.194;2022-08-03T01:49:37;1.77;;;1.67;;
5951;SDS011;3001;42.622;23.194;2022-08-03T01:52:05;1.27;;;1.27;;
5951;SDS011;3001;42.622;23.194;2022-08-03T01:54:35;1.53;;;1.53;;
5951;SDS011;3001;42.622;23.194;2022-08-03T01:57:06;1.50;;;1.50;;
5951;SDS011;3001;42.622;23.194;2022-08-03T01:59:34;1.60;;;1.50;;
5951;SDS011;3001;42.622;23.194;2022-08-03T02:02:04;1.50;;;1.50;;
5951;SDS011;3001;42.622;23.194;2022-08-03T02:04:33;1.33;;;1.33;;
5951;SDS011;3001;42.622;23.194;2022-08-03T02:07:01;1.60;;;1.60;;
5951;SDS011;3001;42.622;23.194;2022-08-03T02:09:28;1.60;;;1.60;;
5951;SDS011;3001;42.622;23.194;2022-08-03T02:11:56;1.43;;;1.43;;
5951;SDS011;3001;42.622;23.194;2022-08-03T02:14:24;2.47;;;1.70;;
5951;SDS011;3001;42.622;23.194;2022-08-03T02:16:53;1.77;;;1.60;;
5951;SDS011;3001;42.622;23.194;2022-08-03T02:19:23;1.70;;;1.70;;
5951;SDS011;3001;42.622;23.194;2022-08-03T02:21:51;3.60;;;1.83;;
5951;SDS011;3001;42.622;23.194;2022-08-03T02:24:19;1.37;;;1.33;;
5951;SDS011;3001;42.622;23.194;2022-08-03T02:26:46;1.40;;;1.40;;
5951;SDS011;3001;42.622;23.194;2022-08-03T02:29:15;1.67;;;1.63;;
5951;SDS011;3001;42.622;23.194;2022-08-03T02:31:46;2.00;;;1.50;;
5951;SDS011;3001;42.622;23.194;2022-08-03T02:34:15;2.40;;;2.20;;
5951;SDS011;3001;42.622;23.194;2022-08-03T02:36:48;2.50;;;1.37;;
5951;SDS011;3001;42.622;23.194;2022-08-03T02:39:18;1.43;;;1.43;;
5951;SDS011;3001;42.622;23.194;2022-08-03T02:41:48;1.50;;;1.40;;
5951;SDS011;3001;42.622;23.194;2022-08-03T02:44:18;1.70;;;1.70;;
5951;SDS011;3001;42.622;23.194;2022-08-03T02:46:49;1.57;;;1.53;;
5951;SDS011;3001;42.622;23.194;2022-08-03T02:49:20;2.60;;;1.70;;
5951;SDS011;3001;42.622;23.194;2022-08-03T02:51:50;3.33;;;1.80;;
5951;SDS011;3001;42.622;23.194;2022-08-03T02:54:18;1.83;;;1.70;;
5951;SDS011;3001;42.622;23.194;2022-08-03T02:56:48;1.87;;;1.70;;
5951;SDS011;3001;42.622;23.194;2022-08-03T02:59:17;1.80;;;1.70;;
5951;SDS011;3001;42.622;23.194;2022-08-03T03:01:46;1.80;;;1.70;;
5951;SDS011;3001;42.622;23.194;2022-08-03T03:04:14;2.30;;;2.20;;
5951;SDS011;3001;42.622;23.194;2022-08-03T03:06:42;1.90;;;1.80;;
5951;SDS011;3001;42.622;23.194;2022-08-03T03:09:11;1.50;;;1.50;;
5951;SDS011;3001;42.622;23.194;2022-08-03T03:11:38;1.90;;;1.50;;
5951;SDS011;3001;42.622;23.194;2022-08-03T03:14:07;1.63;;;1.57;;
5951;SDS011;3001;42.622;23.194;2022-08-03T03:16:37;1.90;;;1.80;;
5951;SDS011;3001;42.622;23.194;2022-08-03T03:19:05;2.93;;;1.77;;
5951;SDS011;3001;42.622;23.194;2022-08-03T03:21:33;3.13;;;1.70;;
5951;SDS011;3001;42.622;23.194;2022-08-03T03:24:02;1.50;;;1.50;;
5951;SDS011;3001;42.622;23.194;2022-08-03T03:26:31;2.20;;;2.10;;
5951;SDS011;3001;42.622;23.194;2022-08-03T03:28:59;2.20;;;1.77;;
5951;SDS011;3001;42.622;23.194;2022-08-03T03:31:26;2.00;;;1.90;;
5951;SDS011;3001;42.622;23.194;2022-08-03T03:33:54;2.10;;;2.00;;
5951;SDS011;3001;42.622;23.194;2022-08-03T03:36:23;2.37;;;2.10;;
5951;SDS011;3001;42.622;23.194;2022-08-03T03:38:50;2.27;;;2.17;;
5951;SDS011;3001;42.622;23.194;2022-08-03T03:41:16;2.63;;;2.43;;
5951;SDS011;3001;42.622;23.194;2022-08-03T03:43:45;2.67;;;2.57;;
5951;SDS011;3001;42.622;23.194;2022-08-03T03:46:12;2.40;;;2.30;;
5951;SDS011;3001;42.622;23.194;2022-08-03T03:48:39;2.50;;;2.40;;
5951;SDS011;3001;42.622;23.194;2022-08-03T03:51:06;2.60;;;2.50;;
5951;SDS011;3001;42.622;23.194;2022-08-03T03:53:33;2.37;;;2.27;;
5951;SDS011;3001;42.622;23.194;2022-08-03T03:55:59;2.63;;;2.53;;
5951;SDS011;3001;42.622;23.194;2022-08-03T03:58:26;2.70;;;2.60;;
5951;SDS011;3001;42.622;23.194;2022-08-03T04:00:54;2.80;;;2.60;;
5951;SDS011;3001;42.622;23.194;2022-08-03T04:03:21;2.80;;;2.60;;
5951;SDS011;3001;42.622;23.194;2022-08-03T04:05:48;2.63;;;2.53;;
5951;SDS011;3001;42.622;23.194;2022-08-03T04:08:32;2.93;;;2.80;;
5951;SDS011;3001;42.622;23.194;2022-08-03T04:11:17;2.80;;;2.70;;
5951;SDS011;3001;42.622;23.194;2022-08-03T04:13:48;2.97;;;2.87;;
5951;SDS011;3001;42.622;23.194;2022-08-03T04:16:22;2.80;;;2.70;;
5951;SDS011;3001;42.622;23.194;2022-08-03T04:18:54;2.90;;;2.70;;
5951;SDS011;3001;42.622;23.194;2022-08-03T04:21:24;2.73;;;2.40;;
5951;SDS011;3001;42.622;23.194;2022-08-03T04:23:52;3.70;;;2.63;;
5951;SDS011;3001;42.622;23.194;2022-08-03T04:26:29;2.43;;;2.33;;
5951;SDS011;3001;42.622;23.194;2022-08-03T04:28:58;3.30;;;3.10;;
5951;SDS011;3001;42.622;23.194;2022-08-03T04:31:27;2.60;;;2.40;;
5951;SDS011;3001;42.622;23.194;2022-08-03T04:33:55;2.80;;;2.70;;
5951;SDS011;3001;42.622;23.194;2022-08-03T04:36:26;2.80;;;2.70;;
5951;SDS011;3001;42.622;23.194;2022-08-03T04:38:59;2.47;;;2.37;;
5951;SDS011;3001;42.622;23.194;2022-08-03T04:41:29;2.90;;;2.70;;
5951;SDS011;3001;42.622;23.194;2022-08-03T04:43:57;3.07;;;2.57;;
5951;SDS011;3001;42.622;23.194;2022-08-03T04:46:26;2.83;;;2.60;;
5951;SDS011;3001;42.622;23.194;2022-08-03T04:48:57;2.60;;;2.50;;
5951;SDS011;3001;42.622;23.194;2022-08-03T04:51:25;2.70;;;2.50;;
5951;SDS011;3001;42.622;23.194;2022-08-03T04:53:52;2.63;;;2.53;;
5951;SDS011;3001;42.622;23.194;2022-08-03T04:56:18;2.60;;;2.50;;
5951;SDS011;3001;42.622;23.194;2022-08-03T04:58:45;2.33;;;2.23;;
5951;SDS011;3001;42.622;23.194;2022-08-03T05:01:12;2.60;;;2.50;;
5951;SDS011;3001;42.622;23.194;2022-08-03T05:03:41;2.23;;;2.13;;
5951;SDS011;3001;42.622;23.194;2022-08-03T05:06:08;3.70;;;2.67;;
5951;SDS011;3001;42.622;23.194;2022-08-03T05:08:34;2.67;;;2.50;;
5951;SDS011;3001;42.622;23.194;2022-08-03T05:11:01;2.60;;;2.50;;
5951;SDS011;3001;42.622;23.194;2022-08-03T05:13:28;3.00;;;2.90;;
5951;SDS011;3001;42.622;23.194;2022-08-03T05:15:55;2.80;;;2.70;;
5951;SDS011;3001;42.622;23.194;2022-08-03T05:18:21;3.00;;;2.80;;
5951;SDS011;3001;42.622;23.194;2022-08-03T05:20:49;3.13;;;2.97;;
5951;SDS011;3001;42.622;23.194;2022-08-03T05:23:16;3.00;;;2.80;;
5951;SDS011;3001;42.622;23.194;2022-08-03T05:25:43;3.00;;;2.80;;
5951;SDS011;3001;42.622;23.194;2022-08-03T05:28:10;3.13;;;3.00;;
5951;SDS011;3001;42.622;23.194;2022-08-03T05:30:36;3.03;;;2.93;;
5951;SDS011;3001;42.622;23.194;2022-08-03T05:33:03;2.80;;;2.70;;
5951;SDS011;3001;42.622;23.194;2022-08-03T05:35:30;2.83;;;2.53;;
5951;SDS011;3001;42.622;23.194;2022-08-03T05:38:00;2.60;;;2.50;;
5951;SDS011;3001;42.622;23.194;2022-08-03T05:40:27;2.53;;;2.43;;
5951;SDS011;3001;42.622;23.194;2022-08-03T05:42:54;3.00;;;2.43;;
5951;SDS011;3001;42.622;23.194;2022-08-03T05:45:21;2.80;;;2.70;;
5951;SDS011;3001;42.622;23.194;2022-08-03T05:47:47;3.00;;;2.80;;
5951;SDS011;3001;42.622;23.194;2022-08-03T05:50:15;2.87;;;2.77;;
5951;SDS011;3001;42.622;23.194;2022-08-03T05:52:43;3.33;;;3.03;;
5951;SDS011;3001;42.622;23.194;2022-08-03T05:55:11;3.03;;;2.93;;
5951;SDS011;3001;42.622;23.194;2022-08-03T05:57:39;3.23;;;2.43;;
5951;SDS011;3001;42.622;23.194;2022-08-03T06:00:08;2.97;;;2.87;;
5951;SDS011;3001;42.622;23.194;2022-08-03T06:02:37;2.70;;;2.60;;
5951;SDS011;3001;42.622;23.194;2022-08-03T06:05:04;3.17;;;3.07;;
5951;SDS011;3001;42.622;23.194;2022-08-03T06:07:32;3.30;;;3.00;;
5951;SDS011;3001;42.622;23.194;2022-08-03T06:09:59;3.20;;;3.07;;
5951;SDS011;3001;42.622;23.194;2022-08-03T06:12:28;2.90;;;2.80;;
5951;SDS011;3001;42.622;23.194;2022-08-03T06:14:55;2.57;;;2.47;;
5951;SDS011;3001;42.622;23.194;2022-08-03T06:17:22;2.40;;;2.30;;
5951;SDS011;3001;42.622;23.194;2022-08-03T06:19:50;3.10;;;2.80;;
5951;SDS011;3001;42.622;23.194;2022-08-03T06:22:17;3.03;;;2.70;;
5951;SDS011;3001;42.622;23.194;2022-08-03T06:24:44;4.10;;;2.90;;
5951;SDS011;3001;42.622;23.194;2022-08-03T06:27:11;3.27;;;3.07;;
5951;SDS011;3001;42.622;23.194;2022-08-03T06:29:39;3.30;;;3.10;;
5951;SDS011;3001;42.622;23.194;2022-08-03T06:32:06;3.03;;;2.93;;
5951;SDS011;3001;42.622;23.194;2022-08-03T06:34:32;3.70;;;3.40;;
5951;SDS011;3001;42.622;23.194;2022-08-03T06:36:59;2.80;;;2.70;;
5951;SDS011;3001;42.622;23.194;2022-08-03T06:39:26;3.13;;;2.93;;
5951;SDS011;3001;42.622;23.194;2022-08-03T06:41:53;2.97;;;2.77;;
5951;SDS011;3001;42.622;23.194;2022-08-03T06:44:19;2.80;;;2.70;;
5951;SDS011;3001;42.622;23.194;2022-08-03T06:46:47;3.03;;;2.90;;
5951;SDS011;3001;42.622;23.194;2022-08-03T06:49:15;2.73;;;2.63;;
5951;SDS011;3001;42.622;23.194;2022-08-03T06:51:42;2.80;;;2.70;;
5951;SDS011;3001;42.622;23.194;2022-08-03T06:54:08;3.27;;;3.07;;
5951;SDS011;3001;42.622;23.194;2022-08-03T06:56:36;2.57;;;2.47;;
5951;SDS011;3001;42.622;23.194;2022-08-03T06:59:03;3.10;;;3.00;;
5951;SDS011;3001;42.622;23.194;2022-08-03T07:01:30;3.20;;;3.00;;
5951;SDS011;3001;42.622;23.194;2022-08-03T07:03:58;3.00;;;2.90;;
5951;SDS011;3001;42.622;23.194;2022-08-03T07:06:25;3.30;;;3.00;;
5951;SDS011;3001;42.622;23.194;2022-08-03T07:08:52;2.77;;;2.47;;
5951;SDS011;3001;42.622;23.194;2022-08-03T07:11:19;2.80;;;2.70;;
5951;SDS011;3001;42.622;23.194;2022-08-03T07:13:46;2.90;;;2.80;;
5951;SDS011;3001;42.622;23.194;2022-08-03T07:16:12;3.23;;;3.07;;
5951;SDS011;3001;42.622;23.194;2022-08-03T07:18:39;3.07;;;2.87;;
5951;SDS011;3001;42.622;23.194;2022-08-03T07:21:07;2.97;;;2.30;;
5951;SDS011;3001;42.622;23.194;2022-08-03T07:23:35;2.30;;;2.20;;
5951;SDS011;3001;42.622;23.194;2022-08-03T07:26:02;3.00;;;2.80;;
5951;SDS011;3001;42.622;23.194;2022-08-03T07:28:28;2.80;;;2.43;;
5951;SDS011;3001;42.622;23.194;2022-08-03T07:30:55;2.93;;;2.83;;
5951;SDS011;3001;42.622;23.194;2022-08-03T07:33:23;2.60;;;2.50;;
5951;SDS011;3001;42.622;23.194;2022-08-03T07:35:50;2.90;;;2.40;;
5951;SDS011;3001;42.622;23.194;2022-08-03T07:38:18;2.70;;;2.60;;
5951;SDS011;3001;42.622;23.194;2022-08-03T07:40:45;2.47;;;2.37;;
5951;SDS011;3001;42.622;23.194;2022-08-03T07:43:12;2.43;;;2.33;;
5951;SDS011;3001;42.622;23.194;2022-08-03T07:45:38;2.80;;;2.60;;
5951;SDS011;3001;42.622;23.194;2022-08-03T07:48:05;2.40;;;2.33;;
5951;SDS011;3001;42.622;23.194;2022-08-03T07:50:32;2.37;;;2.27;;
5951;SDS011;3001;42.622;23.194;2022-08-03T07:52:58;3.13;;;2.40;;
5951;SDS011;3001;42.622;23.194;2022-08-03T07:55:27;2.80;;;2.70;;
5951;SDS011;3001;42.622;23.194;2022-08-03T07:58:01;2.70;;;2.57;;
5951;SDS011;3001;42.622;23.194;2022-08-03T08:00:29;2.70;;;2.50;;
5951;SDS011;3001;42.622;23.194;2022-08-03T08:02:56;2.90;;;2.80;;
5951;SDS011;3001;42.622;23.194;2022-08-03T08:05:23;2.63;;;2.53;;
5951;SDS011;3001;42.622;23.194;2022-08-03T08:07:49;2.67;;;2.47;;
5951;SDS011;3001;42.622;23.194;2022-08-03T08:10:16;2.07;;;2.07;;
5951;SDS011;3001;42.622;23.194;2022-08-03T08:12:44;2.53;;;2.33;;
5951;SDS011;3001;42.622;23.194;2022-08-03T08:15:11;2.70;;;2.50;;
5951;SDS011;3001;42.622;23.194;2022-08-03T08:17:41;2.25;;;2.10;;
5951;SDS011;3001;42.622;23.194;2022-08-03T08:20:10;2.03;;;2.03;;
5951;SDS011;3001;42.622;23.194;2022-08-03T08:22:37;1.60;;;1.60;;
5951;SDS011;3001;42.622;23.194;2022-08-03T08:25:05;3.90;;;2.37;;
5951;SDS011;3001;42.622;23.194;2022-08-03T08:27:32;2.90;;;2.60;;
5951;SDS011;3001;42.622;23.194;2022-08-03T08:30:00;2.15;;;2.15;;
5951;SDS011;3001;42.622;23.194;2022-08-03T08:32:29;2.10;;;2.00;;
5951;SDS011;3001;42.622;23.194;2022-08-03T08:34:56;2.00;;;2.00;;
5951;SDS011;3001;42.622;23.194;2022-08-03T08:37:23;2.30;;;2.20;;
5951;SDS011;3001;42.622;23.194;2022-08-03T08:39:50;2.40;;;2.30;;
5951;SDS011;3001;42.622;23.194;2022-08-03T08:42:16;2.30;;;2.20;;
5951;SDS011;3001;42.622;23.194;2022-08-03T08:44:43;1.77;;;1.67;;
5951;SDS011;3001;42.622;23.194;2022-08-03T08:47:11;3.03;;;2.33;;
5951;SDS011;3001;42.622;23.194;2022-08-03T08:49:39;2.13;;;2.03;;
5951;SDS011;3001;42.622;23.194;2022-08-03T08:52:07;2.22;;;2.10;;
5951;SDS011;3001;42.622;23.194;2022-08-03T08:54:35;1.98;;;1.88;;
5951;SDS011;3001;42.622;23.194;2022-08-03T08:57:05;2.10;;;2.00;;
5951;SDS011;3001;42.622;23.194;2022-08-03T08:59:32;2.70;;;2.20;;
5951;SDS011;3001;42.622;23.194;2022-08-03T09:01:59;1.90;;;1.90;;
5951;SDS011;3001;42.622;23.194;2022-08-03T09:04:28;2.40;;;2.30;;
5951;SDS011;3001;42.622;23.194;2022-08-03T09:06:55;2.85;;;2.75;;
5951;SDS011;3001;42.622;23.194;2022-08-03T09:09:22;3.45;;;3.25;;
5951;SDS011;3001;42.622;23.194;2022-08-03T09:11:48;4.68;;;4.30;;
5951;SDS011;3001;42.622;23.194;2022-08-03T09:14:15;4.18;;;2.80;;
5951;SDS011;3001;42.622;23.194;2022-08-03T09:16:54;2.60;;;2.50;;
5951;SDS011;3001;42.622;23.194;2022-08-03T09:19:22;2.15;;;2.05;;
5951;SDS011;3001;42.622;23.194;2022-08-03T09:21:54;2.10;;;2.03;;
5951;SDS011;3001;42.622;23.194;2022-08-03T09:24:33;2.20;;;2.10;;
5951;SDS011;3001;42.622;23.194;2022-08-03T09:27:00;1.95;;;1.92;;
5951;SDS011;3001;42.622;23.194;2022-08-03T09:29:29;2.10;;;2.00;;
5951;SDS011;3001;42.622;23.194;2022-08-03T09:31:59;1.80;;;1.80;;
5951;SDS011;3001;42.622;23.194;2022-08-03T09:34:27;2.10;;;2.00;;
5951;SDS011;3001;42.622;23.194;2022-08-03T09:36:55;2.40;;;2.28;;
5951;SDS011;3001;42.622;23.194;2022-08-03T09:39:23;2.47;;;2.28;;
5951;SDS011;3001;42.622;23.194;2022-08-03T09:42:03;2.10;;;2.00;;
5951;SDS011;3001;42.622;23.194;2022-08-03T09:44:34;2.15;;;2.05;;
5951;SDS011;3001;42.622;23.194;2022-08-03T09:47:02;2.13;;;2.03;;
5951;SDS011;3001;42.622;23.194;2022-08-03T09:49:29;1.73;;;1.73;;
5951;SDS011;3001;42.622;23.194;2022-08-03T09:51:57;2.38;;;2.35;;
5951;SDS011;3001;42.622;23.194;2022-08-03T09:54:27;2.05;;;1.95;;
5951;SDS011;3001;42.622;23.194;2022-08-03T09:56:55;2.13;;;2.03;;
5951;SDS011;3001;42.622;23.194;2022-08-03T09:59:24;2.10;;;2.00;;
5951;SDS011;3001;42.622;23.194;2022-08-03T10:01:51;2.08;;;1.95;;
5951;SDS011;3001;42.622;23.194;2022-08-03T10:04:19;2.25;;;2.15;;
5951;SDS011;3001;42.622;23.194;2022-08-03T10:07:01;2.28;;;2.17;;
5951;SDS011;3001;42.622;23.194;2022-08-03T10:09:29;2.17;;;2.13;;
5951;SDS011;3001;42.622;23.194;2022-08-03T10:11:56;3.15;;;2.42;;
5951;SDS011;3001;42.622;23.194;2022-08-03T10:14:31;4.22;;;2.40;;
5951;SDS011;3001;42.622;23.194;2022-08-03T10:16:59;2.22;;;2.20;;
5951;SDS011;3001;42.622;23.194;2022-08-03T10:19:26;2.70;;;2.50;;
5951;SDS011;3001;42.622;23.194;2022-08-03T10:21:54;2.15;;;2.05;;
5951;SDS011;3001;42.622;23.194;2022-08-03T10:24:24;2.50;;;2.40;;
5951;SDS011;3001;42.622;23.194;2022-08-03T10:26:55;2.97;;;2.88;;
5951;SDS011;3001;42.622;23.194;2022-08-03T10:29:27;2.60;;;2.50;;
5951;SDS011;3001;42.622;23.194;2022-08-03T10:31:57;2.53;;;2.42;;
5951;SDS011;3001;42.622;23.194;2022-08-03T10:34:28;2.50;;;2.40;;
5951;SDS011;3001;42.622;23.194;2022-08-03T10:37:06;3.33;;;3.13;;
5951;SDS011;3001;42.622;23.194;2022-08-03T10:39:37;2.25;;;2.15;;
5951;SDS011;3001;42.622;23.194;2022-08-03T10:42:17;2.80;;;2.63;;
5951;SDS011;3001;42.622;23.194;2022-08-03T10:44:46;3.22;;;3.13;;
5951;SDS011;3001;42.622;23.194;2022-08-03T10:47:18;4.22;;;3.92;;
5951;SDS011;3001;42.622;23.194;2022-08-03T10:49:46;4.03;;;3.75;;
5951;SDS011;3001;42.622;23.194;2022-08-03T10:52:14;4.13;;;3.92;;
5951;SDS011;3001;42.622;23.194;2022-08-03T10:54:43;3.10;;;3.00;;
5951;SDS011;3001;42.622;23.194;2022-08-03T10:57:43;3.58;;;3.38;;
5951;SDS011;3001;42.622;23.194;2022-08-03T11:00:11;3.47;;;3.28;;
5951;SDS011;3001;42.622;23.194;2022-08-03T11:05:31;3.03;;;2.92;;
5951;SDS011;3001;42.622;23.194;2022-08-03T11:10:50;3.03;;;2.92;;
5951;SDS011;3001;42.622;23.194;2022-08-03T11:13:18;3.30;;;3.10;;
5951;SDS011;3001;42.622;23.194;2022-08-03T11:15:47;3.28;;;3.08;;
5951;SDS011;3001;42.622;23.194;2022-08-03T11:18:15;2.65;;;2.55;;
5951;SDS011;3001;42.622;23.194;2022-08-03T11:20:43;5.78;;;2.55;;
5951;SDS011;3001;42.622;23.194;2022-08-03T11:23:10;5.30;;;2.65;;
5951;SDS011;3001;42.622;23.194;2022-08-03T11:28:38;2.45;;;2.35;;
5951;SDS011;3001;42.622;23.194;2022-08-03T11:34:14;3.33;;;3.13;;
5951;SDS011;3001;42.622;23.194;2022-08-03T11:39:47;2.25;;;2.15;;
5951;SDS011;3001;42.622;23.194;2022-08-03T11:45:12;2.88;;;2.47;;
5951;SDS011;3001;42.622;23.194;2022-08-03T11:47:40;2.60;;;2.50;;
5951;SDS011;3001;42.622;23.194;2022-08-03T11:50:08;3.00;;;2.90;;
5951;SDS011;3001;42.622;23.194;2022-08-03T11:52:39;2.35;;;2.25;;
5951;SDS011;3001;42.622;23.194;2022-08-03T11:55:10;2.67;;;2.58;;
5951;SDS011;3001;42.622;23.194;2022-08-03T11:57:38;2.70;;;2.60;;
5951;SDS011;3001;42.622;23.194;2022-08-03T12:00:19;1.92;;;1.90;;
5951;SDS011;3001;42.622;23.194;2022-08-03T12:02:58;2.00;;;1.90;;
5951;SDS011;3001;42.622;23.194;2022-08-03T12:05:37;3.20;;;2.50;;
5951;SDS011;3001;42.622;23.194;2022-08-03T12:08:06;2.10;;;2.10;;
5951;SDS011;3001;42.622;23.194;2022-08-03T12:10:34;2.40;;;2.25;;
5951;SDS011;3001;42.622;23.194;2022-08-03T12:13:01;1.98;;;1.92;;
5951;SDS011;3001;42.622;23.194;2022-08-03T12:15:34;2.10;;;2.00;;
5951;SDS011;3001;42.622;23.194;2022-08-03T12:18:03;1.92;;;1.83;;
5951;SDS011;3001;42.622;23.194;2022-08-03T12:20:38;2.15;;;2.05;;
5951;SDS011;3001;42.622;23.194;2022-08-03T12:23:05;2.20;;;2.10;;
5951;SDS011;3001;42.622;23.194;2022-08-03T12:25:33;2.40;;;2.30;;
5951;SDS011;3001;42.622;23.194;2022-08-03T12:28:10;1.80;;;1.65;;
5951;SDS011;3001;42.622;23.194;2022-08-03T12:30:42;1.70;;;1.70;;
5951;SDS011;3001;42.622;23.194;2022-08-03T12:33:15;1.90;;;1.80;;
5951;SDS011;3001;42.622;23.194;2022-08-03T12:35:48;1.80;;;1.80;;
5951;SDS011;3001;42.622;23.194;2022-08-03T12:38:29;1.70;;;1.70;;
5951;SDS011;3001;42.622;23.194;2022-08-03T12:41:00;1.80;;;1.70;;
5951;SDS011;3001;42.622;23.194;2022-08-03T12:43:29;2.08;;;1.98;;
5951;SDS011;3001;42.622;23.194;2022-08-03T12:46:14;2.05;;;1.95;;
5951;SDS011;3001;42.622;23.194;2022-08-03T12:48:58;2.38;;;1.98;;
5951;SDS011;3001;42.622;23.194;2022-08-03T12:51:30;1.77;;;1.67;;
5951;SDS011;3001;42.622;23.194;2022-08-03T12:53:58;1.63;;;1.63;;
5951;SDS011;3001;42.622;23.194;2022-08-03T12:56:25;3.08;;;2.50;;
5951;SDS011;3001;42.622;23.194;2022-08-03T12:58:52;2.00;;;1.90;;
5951;SDS011;3001;42.622;23.194;2022-08-03T13:01:20;1.52;;;1.52;;
5951;SDS011;3001;42.622;23.194;2022-08-03T13:03:49;1.85;;;1.85;;
5951;SDS011;3001;42.622;23.194;2022-08-03T13:06:18;2.40;;;2.20;;
5951;SDS011;3001;42.622;23.194;2022-08-03T13:08:46;2.20;;;2.10;;
5951;SDS011;3001;42.622;23.194;2022-08-03T13:11:17;2.08;;;2.00;;
5951;SDS011;3001;42.622;23.194;2022-08-03T13:13:49;2.30;;;2.13;;
5951;SDS011;3001;42.622;23.194;2022-08-03T13:16:16;2.20;;;2.10;;
5951;SDS011;3001;42.622;23.194;2022-08-03T13:18:44;1.77;;;1.77;;
5951;SDS011;3001;42.622;23.194;2022-08-03T13:21:12;2.10;;;2.00;;
5951;SDS011;3001;42.622;23.194;2022-08-03T13:23:39;2.13;;;2.03;;
5951;SDS011;3001;42.622;23.194;2022-08-03T13:26:06;2.30;;;2.20;;
5951;SDS011;3001;42.622;23.194;2022-08-03T13:28:33;1.98;;;1.92;;
5951;SDS011;3001;42.622;23.194;2022-08-03T13:31:00;2.72;;;2.03;;
5951;SDS011;3001;42.622;23.194;2022-08-03T13:33:27;2.05;;;1.90;;
5951;SDS011;3001;42.622;23.194;2022-08-03T13:35:55;2.05;;;1.95;;
5951;SDS011;3001;42.622;23.194;2022-08-03T13:38:22;2.60;;;1.85;;
5951;SDS011;3001;42.622;23.194;2022-08-03T13:40:50;2.10;;;2.00;;
5951;SDS011;3001;42.622;23.194;2022-08-03T13:43:17;2.17;;;2.08;;
5951;SDS011;3001;42.622;23.194;2022-08-03T13:45:44;2.47;;;2.38;;
5951;SDS011;3001;42.622;23.194;2022-08-03T13:48:11;2.15;;;2.05;;
5951;SDS011;3001;42.622;23.194;2022-08-03T13:50:38;2.03;;;2.03;;
5951;SDS011;3001;42.622;23.194;2022-08-03T13:53:06;2.22;;;2.13;;
5951;SDS011;3001;42.622;23.194;2022-08-03T13:55:33;2.38;;;2.20;;
5951;SDS011;3001;42.622;23.194;2022-08-03T13:58:00;2.35;;;2.20;;
5951;SDS011;3001;42.622;23.194;2022-08-03T14:00:27;2.25;;;2.10;;
5951;SDS011;3001;42.622;23.194;2022-08-03T14:02:54;2.10;;;1.95;;
5951;SDS011;3001;42.622;23.194;2022-08-03T14:05:24;2.47;;;2.33;;
5951;SDS011;3001;42.622;23.194;2022-08-03T14:07:51;2.15;;;2.05;;
5951;SDS011;3001;42.622;23.194;2022-08-03T14:10:19;3.85;;;3.45;;
5951;SDS011;3001;42.622;23.194;2022-08-03T14:12:45;2.30;;;2.20;;
5951;SDS011;3001;42.622;23.194;2022-08-03T14:15:12;2.10;;;2.10;;
5951;SDS011;3001;42.622;23.194;2022-08-03T14:17:39;2.40;;;2.30;;
5951;SDS011;3001;42.622;23.194;2022-08-03T14:20:06;2.33;;;2.20;;
5951;SDS011;3001;42.622;23.194;2022-08-03T14:22:34;2.30;;;2.20;;
5951;SDS011;3001;42.622;23.194;2022-08-03T14:25:00;2.50;;;2.40;;
5951;SDS011;3001;42.622;23.194;2022-08-03T14:27:28;2.45;;;2.35;;
5951;SDS011;3001;42.622;23.194;2022-08-03T14:29:55;2.50;;;2.30;;
5951;SDS011;3001;42.622;23.194;2022-08-03T14:32:24;2.53;;;2.42;;
5951;SDS011;3001;42.622;23.194;2022-08-03T14:34:51;2.67;;;2.47;;
5951;SDS011;3001;42.622;23.194;2022-08-03T14:37:18;2.50;;;2.30;;
5951;SDS011;3001;42.622;23.194;2022-08-03T14:39:45;2.22;;;2.17;;
5951;SDS011;3001;42.622;23.194;2022-08-03T14:42:12;2.45;;;2.33;;
5951;SDS011;3001;42.622;23.194;2022-08-03T14:44:42;2.40;;;2.30;;
5951;SDS011;3001;42.622;23.194;2022-08-03T14:47:08;2.70;;;2.60;;
5951;SDS011;3001;42.622;23.194;2022-08-03T14:49:35;2.40;;;2.30;;
5951;SDS011;3001;42.622;23.194;2022-08-03T14:52:02;2.97;;;2.50;;
5951;SDS011;3001;42.622;23.194;2022-08-03T14:54:30;2.83;;;2.72;;
5951;SDS011;3001;42.622;23.194;2022-08-03T14:56:56;2.72;;;2.60;;
5951;SDS011;3001;42.622;23.194;2022-08-03T14:59:24;2.50;;;2.40;;
5951;SDS011;3001;42.622;23.194;2022-08-03T15:01:52;2.80;;;2.70;;
5951;SDS011;3001;42.622;23.194;2022-08-03T15:04:19;2.53;;;2.42;;
5951;SDS011;3001;42.622;23.194;2022-08-03T15:06:46;3.15;;;3.05;;
5951;SDS011;3001;42.622;23.194;2022-08-03T15:09:13;2.90;;;2.80;;
5951;SDS011;3001;42.622;23.194;2022-08-03T15:11:40;2.25;;;2.15;;
5951;SDS011;3001;42.622;23.194;2022-08-03T15:14:07;2.42;;;2.33;;
5951;SDS011;3001;42.622;23.194;2022-08-03T15:16:34;3.75;;;2.13;;
5951;SDS011;3001;42.622;23.194;2022-08-03T15:19:02;2.50;;;2.30;;
5951;SDS011;3001;42.622;23.194;2022-08-03T15:21:28;1.92;;;1.92;;
5951;SDS011;3001;42.622;23.194;2022-08-03T15:23:55;1.90;;;1.90;;
5951;SDS011;3001;42.622;23.194;2022-08-03T15:26:22;2.20;;;2.10;;
5951;SDS011;3001;42.622;23.194;2022-08-03T15:28:49;2.60;;;2.40;;